sensor_id;sensor_type;location;lat;lon;timestamp;temperature;humidity
421;DHT22;63667;49.046;8.468;2022-11-15T00:01:18;8.00;99.60
421;DHT22;63667;49.046;8.468;2022-11-15T00:03:46;8.00;99.60
421;DHT22;63667;49.046;8.468;2022-11-15T00:06:13;7.90;99.60
421;DHT22;63667;49.046;8.468;2022-11-15T00:08:41;7.90;99.60
421;DHT22;63667;49.046;8.468;2022-11-15T00:11:10;7.80;99.60
421;DHT22;63667;49.046;8.468;2022-11-15T00:13:37;7.70;99.60
421;DHT22;63667;49.046;8.468;2022-11-15T00:16:06;7.90;99.60
421;DHT22;63667;49.046;8.468;2022-11-15T00:18:34;7.80;99.60
421;DHT22;63667;49.046;8.468;2022-11-15T00:21:07;7.70;99.60
421;DHT22;63667;49.046;8.468;2022-11-15T00:23:37;7.80;99.60
421;DHT22;63667;49.046;8.468;2022-11-15T00:26:05;7.80;99.60
421;DHT22;63667;49.046;8.468;2022-11-15T00:28:32;7.70;99.60
421;DHT22;63667;49.046;8.468;2022-11-15T00:31:04;7.80;99.60
421;DHT22;63667;49.046;8.468;2022-11-15T00:33:32;7.90;99.60
421;DHT22;63667;49.046;8.468;2022-11-15T00:36:09;7.90;99.60
421;DHT22;63667;49.046;8.468;2022-11-15T00:38:39;7.90;99.60
421;DHT22;63667;49.046;8.468;2022-11-15T00:41:07;8.40;99.60
421;DHT22;63667;49.046;8.468;2022-11-15T00:43:36;8.30;99.60
421;DHT22;63667;49.046;8.468;2022-11-15T00:46:03;8.20;99.60
421;DHT22;63667;49.046;8.468;2022-11-15T00:48:31;8.30;99.60
421;DHT22;63667;49.046;8.468;2022-11-15T00:50:59;8.10;99.60
421;DHT22;63667;49.046;8.468;2022-11-15T00:53:26;8.20;99.60
421;DHT22;63667;49.046;8.468;2022-11-15T00:55:54;8.10;99.60
421;DHT22;63667;49.046;8.468;2022-11-15T00:58:21;8.50;99.60
421;DHT22;63667;49.046;8.468;2022-11-15T01:00:53;8.30;99.60
421;DHT22;63667;49.046;8.468;2022-11-15T01:03:22;8.20;99.60
421;DHT22;63667;49.046;8.468;2022-11-15T01:05:49;8.10;99.60
421;DHT22;63667;49.046;8.468;2022-11-15T01:08:17;8.10;99.60
421;DHT22;63667;49.046;8.468;2022-11-15T01:10:44;8.00;99.60
421;DHT22;63667;49.046;8.468;2022-11-15T01:13:12;8.10;99.60
421;DHT22;63667;49.046;8.468;2022-11-15T01:15:40;8.20;99.60
421;DHT22;63667;49.046;8.468;2022-11-15T01:18:09;8.20;99.60
421;DHT22;63667;49.046;8.468;2022-11-15T01:20:42;8.20;99.60
421;DHT22;63667;49.046;8.468;2022-11-15T01:23:09;8.20;99.60
421;DHT22;63667;49.046;8.468;2022-11-15T01:25:37;8.10;99.60
421;DHT22;63667;49.046;8.468;2022-11-15T01:28:04;8.20;99.60
421;DHT22;63667;49.046;8.468;2022-11-15T01:30:31;8.20;99.60
421;DHT22;63667;49.046;8.468;2022-11-15T01:32:58;8.20;99.60
421;DHT22;63667;49.046;8.468;2022-11-15T01:35:27;8.10;99.60
421;DHT22;63667;49.046;8.468;2022-11-15T01:37:54;8.30;99.60
421;DHT22;63667;49.046;8.468;2022-11-15T01:40:22;8.30;99.60
421;DHT22;63667;49.046;8.468;2022-11-15T01:42:49;8.40;99.60
421;DHT22;63667;49.046;8.468;2022-11-15T01:45:16;8.20;99.60
421;DHT22;63667;49.046;8.468;2022-11-15T01:47:51;8.10;99.60
421;DHT22;63667;49.046;8.468;2022-11-15T01:50:35;8.10;99.60
421;DHT22;63667;49.046;8.468;2022-11-15T01:53:05;8.20;99.60
421;DHT22;63667;49.046;8.468;2022-11-15T01:55:33;8.40;99.60
421;DHT22;63667;49.046;8.468;2022-11-15T01:58:02;8.30;99.60
421;DHT22;63667;49.046;8.468;2022-11-15T02:00:31;8.40;99.60
421;DHT22;63667;49.046;8.468;2022-11-15T02:02:58;8.30;99.60
421;DHT22;63667;49.046;8.468;2022-11-15T02:05:26;8.30;99.60
421;DHT22;63667;49.046;8.468;2022-11-15T02:07:54;8.40;99.60
421;DHT22;63667;49.046;8.468;2022-11-15T02:10:24;8.40;99.60
421;DHT22;63667;49.046;8.468;2022-11-15T02:12:52;8.40;99.60
421;DHT22;63667;49.046;8.468;2022-11-15T02:15:20;8.30;99.60
421;DHT22;63667;49.046;8.468;2022-11-15T02:18:00;8.30;99.60
421;DHT22;63667;49.046;8.468;2022-11-15T02:20:42;8.30;99.60
421;DHT22;63667;49.046;8.468;2022-11-15T02:28:53;8.30;99.60
421;DHT22;63667;49.046;8.468;2022-11-15T02:37:34;8.30;99.60
421;DHT22;63667;49.046;8.468;2022-11-15T02:40:52;8.30;99.60
421;DHT22;63667;49.046;8.468;2022-11-15T02:43:28;8.40;99.60
421;DHT22;63667;49.046;8.468;2022-11-15T02:46:41;8.30;99.60
421;DHT22;63667;49.046;8.468;2022-11-15T02:49:31;8.30;99.60
421;DHT22;63667;49.046;8.468;2022-11-15T02:51:59;8.40;99.60
421;DHT22;63667;49.046;8.468;2022-11-15T02:54:30;8.30;99.60
421;DHT22;63667;49.046;8.468;2022-11-15T02:57:04;8.30;99.60
421;DHT22;63667;49.046;8.468;2022-11-15T03:08:08;8.50;99.60
421;DHT22;63667;49.046;8.468;2022-11-15T03:10:45;8.40;99.60
421;DHT22;63667;49.046;8.468;2022-11-15T03:16:07;8.50;99.60
421;DHT22;63667;49.046;8.468;2022-11-15T03:18:45;8.50;99.60
421;DHT22;63667;49.046;8.468;2022-11-15T03:21:15;8.40;99.60
421;DHT22;63667;49.046;8.468;2022-11-15T03:23:43;8.40;99.60
421;DHT22;63667;49.046;8.468;2022-11-15T03:26:12;8.40;99.60
421;DHT22;63667;49.046;8.468;2022-11-15T03:29:01;8.50;99.60
421;DHT22;63667;49.046;8.468;2022-11-15T03:31:34;8.50;99.60
421;DHT22;63667;49.046;8.468;2022-11-15T03:34:53;8.70;99.60
421;DHT22;63667;49.046;8.468;2022-11-15T03:37:27;8.70;99.60
421;DHT22;63667;49.046;8.468;2022-11-15T03:39:56;8.70;99.60
421;DHT22;63667;49.046;8.468;2022-11-15T03:42:46;8.70;99.60
421;DHT22;63667;49.046;8.468;2022-11-15T03:45:19;8.80;99.60
421;DHT22;63667;49.046;8.468;2022-11-15T03:47:53;8.70;99.60
421;DHT22;63667;49.046;8.468;2022-11-15T03:50:22;8.80;99.60
421;DHT22;63667;49.046;8.468;2022-11-15T03:52:52;8.70;99.60
421;DHT22;63667;49.046;8.468;2022-11-15T03:55:21;8.90;99.60
421;DHT22;63667;49.046;8.468;2022-11-15T03:57:51;8.90;99.60
421;DHT22;63667;49.046;8.468;2022-11-15T04:00:19;9.00;99.60
421;DHT22;63667;49.046;8.468;2022-11-15T04:02:47;9.00;99.60
421;DHT22;63667;49.046;8.468;2022-11-15T04:05:14;8.90;99.60
421;DHT22;63667;49.046;8.468;2022-11-15T04:07:42;9.00;99.60
421;DHT22;63667;49.046;8.468;2022-11-15T04:10:10;9.00;99.60
421;DHT22;63667;49.046;8.468;2022-11-15T04:12:40;9.00;99.60
421;DHT22;63667;49.046;8.468;2022-11-15T04:15:10;9.00;99.60
421;DHT22;63667;49.046;8.468;2022-11-15T04:20:42;9.30;99.60
421;DHT22;63667;49.046;8.468;2022-11-15T04:23:28;9.30;99.60
421;DHT22;63667;49.046;8.468;2022-11-15T04:26:19;9.10;99.60
421;DHT22;63667;49.046;8.468;2022-11-15T04:28:47;9.30;99.60
421;DHT22;63667;49.046;8.468;2022-11-15T04:31:34;9.20;99.60
421;DHT22;63667;49.046;8.468;2022-11-15T04:34:01;9.10;99.60
421;DHT22;63667;49.046;8.468;2022-11-15T04:36:29;9.00;99.60
421;DHT22;63667;49.046;8.468;2022-11-15T04:39:15;9.20;99.60
421;DHT22;63667;49.046;8.468;2022-11-15T04:41:42;9.30;99.60
421;DHT22;63667;49.046;8.468;2022-11-15T04:44:10;9.10;99.60
421;DHT22;63667;49.046;8.468;2022-11-15T04:46:39;9.00;99.60
421;DHT22;63667;49.046;8.468;2022-11-15T04:49:06;9.00;99.60
421;DHT22;63667;49.046;8.468;2022-11-15T04:51:34;9.00;99.60
421;DHT22;63667;49.046;8.468;2022-11-15T04:54:02;9.00;99.60
421;DHT22;63667;49.046;8.468;2022-11-15T04:56:30;8.90;99.60
421;DHT22;63667;49.046;8.468;2022-11-15T04:58:57;8.90;99.60
421;DHT22;63667;49.046;8.468;2022-11-15T05:01:25;9.00;99.60
421;DHT22;63667;49.046;8.468;2022-11-15T05:03:52;8.90;99.60
421;DHT22;63667;49.046;8.468;2022-11-15T05:06:38;8.90;99.60
421;DHT22;63667;49.046;8.468;2022-11-15T05:09:05;9.00;99.60
421;DHT22;63667;49.046;8.468;2022-11-15T05:11:33;9.10;99.60
421;DHT22;63667;49.046;8.468;2022-11-15T05:14:01;9.30;99.60
421;DHT22;63667;49.046;8.468;2022-11-15T05:16:28;9.40;99.60
421;DHT22;63667;49.046;8.468;2022-11-15T05:18:54;9.50;99.60
421;DHT22;63667;49.046;8.468;2022-11-15T05:21:22;9.30;99.60
421;DHT22;63667;49.046;8.468;2022-11-15T05:23:49;9.20;99.60
421;DHT22;63667;49.046;8.468;2022-11-15T05:26:17;9.10;99.60
421;DHT22;63667;49.046;8.468;2022-11-15T05:28:44;9.30;99.60
421;DHT22;63667;49.046;8.468;2022-11-15T05:31:13;9.20;99.60
421;DHT22;63667;49.046;8.468;2022-11-15T05:33:41;9.10;99.60
421;DHT22;63667;49.046;8.468;2022-11-15T05:39:21;9.00;99.60
421;DHT22;63667;49.046;8.468;2022-11-15T05:42:05;9.10;99.60
421;DHT22;63667;49.046;8.468;2022-11-15T05:44:32;9.00;99.60
421;DHT22;63667;49.046;8.468;2022-11-15T05:47:00;8.90;99.60
421;DHT22;63667;49.046;8.468;2022-11-15T05:49:31;8.90;99.60
421;DHT22;63667;49.046;8.468;2022-11-15T05:51:58;8.90;99.60
421;DHT22;63667;49.046;8.468;2022-11-15T05:54:26;8.90;99.60
421;DHT22;63667;49.046;8.468;2022-11-15T05:56:54;8.90;99.60
421;DHT22;63667;49.046;8.468;2022-11-15T05:59:22;8.80;99.60
421;DHT22;63667;49.046;8.468;2022-11-15T06:01:48;8.80;99.60
421;DHT22;63667;49.046;8.468;2022-11-15T06:04:15;8.80;99.60
421;DHT22;63667;49.046;8.468;2022-11-15T06:06:42;8.70;99.60
421;DHT22;63667;49.046;8.468;2022-11-15T06:09:08;8.80;99.60
421;DHT22;63667;49.046;8.468;2022-11-15T06:11:34;8.90;99.60
421;DHT22;63667;49.046;8.468;2022-11-15T06:14:01;8.80;99.60
421;DHT22;63667;49.046;8.468;2022-11-15T06:16:28;8.70;99.60
421;DHT22;63667;49.046;8.468;2022-11-15T06:18:54;8.60;99.60
421;DHT22;63667;49.046;8.468;2022-11-15T06:21:21;8.70;99.60
421;DHT22;63667;49.046;8.468;2022-11-15T06:23:49;8.60;99.60
421;DHT22;63667;49.046;8.468;2022-11-15T06:26:16;8.60;99.60
421;DHT22;63667;49.046;8.468;2022-11-15T06:28:42;8.50;99.60
421;DHT22;63667;49.046;8.468;2022-11-15T06:31:10;8.50;99.60
421;DHT22;63667;49.046;8.468;2022-11-15T06:33:42;8.70;99.60
421;DHT22;63667;49.046;8.468;2022-11-15T06:36:11;8.80;99.60
421;DHT22;63667;49.046;8.468;2022-11-15T06:38:40;8.90;99.60
421;DHT22;63667;49.046;8.468;2022-11-15T06:41:09;9.00;99.60
421;DHT22;63667;49.046;8.468;2022-11-15T06:43:37;9.20;99.60
421;DHT22;63667;49.046;8.468;2022-11-15T06:46:06;9.30;99.60
421;DHT22;63667;49.046;8.468;2022-11-15T06:48:33;9.30;99.60
421;DHT22;63667;49.046;8.468;2022-11-15T06:51:01;9.20;99.60
421;DHT22;63667;49.046;8.468;2022-11-15T06:53:30;9.10;99.60
421;DHT22;63667;49.046;8.468;2022-11-15T06:56:03;8.90;99.60
421;DHT22;63667;49.046;8.468;2022-11-15T06:58:30;9.00;99.60
421;DHT22;63667;49.046;8.468;2022-11-15T07:01:03;9.10;99.60
421;DHT22;63667;49.046;8.468;2022-11-15T07:03:30;9.20;99.60
421;DHT22;63667;49.046;8.468;2022-11-15T07:05:58;9.40;99.60
421;DHT22;63667;49.046;8.468;2022-11-15T07:08:27;9.40;99.60
421;DHT22;63667;49.046;8.468;2022-11-15T07:10:59;9.40;99.60
421;DHT22;63667;49.046;8.468;2022-11-15T07:13:27;9.40;99.60
421;DHT22;63667;49.046;8.468;2022-11-15T07:15:55;9.40;99.60
421;DHT22;63667;49.046;8.468;2022-11-15T07:18:22;9.40;99.60
421;DHT22;63667;49.046;8.468;2022-11-15T07:20:49;9.30;99.60
421;DHT22;63667;49.046;8.468;2022-11-15T07:23:17;9.30;99.60
421;DHT22;63667;49.046;8.468;2022-11-15T07:25:44;9.60;99.60
421;DHT22;63667;49.046;8.468;2022-11-15T07:28:11;9.50;99.60
421;DHT22;63667;49.046;8.468;2022-11-15T07:30:39;9.50;99.60
421;DHT22;63667;49.046;8.468;2022-11-15T07:33:07;9.60;99.60
421;DHT22;63667;49.046;8.468;2022-11-15T07:35:34;9.50;99.60
421;DHT22;63667;49.046;8.468;2022-11-15T07:38:02;9.50;99.60
421;DHT22;63667;49.046;8.468;2022-11-15T07:40:31;9.60;99.60
421;DHT22;63667;49.046;8.468;2022-11-15T07:43:02;9.60;99.60
421;DHT22;63667;49.046;8.468;2022-11-15T07:45:30;9.80;99.60
421;DHT22;63667;49.046;8.468;2022-11-15T07:47:57;10.00;99.60
421;DHT22;63667;49.046;8.468;2022-11-15T07:50:26;10.00;99.60
421;DHT22;63667;49.046;8.468;2022-11-15T07:52:57;10.00;99.60
421;DHT22;63667;49.046;8.468;2022-11-15T07:55:26;9.90;99.60
421;DHT22;63667;49.046;8.468;2022-11-15T07:58:01;10.00;99.60
421;DHT22;63667;49.046;8.468;2022-11-15T08:00:28;10.30;99.60
421;DHT22;63667;49.046;8.468;2022-11-15T08:03:06;10.70;99.60
421;DHT22;63667;49.046;8.468;2022-11-15T08:05:33;10.50;99.60
421;DHT22;63667;49.046;8.468;2022-11-15T08:08:00;10.30;99.60
421;DHT22;63667;49.046;8.468;2022-11-15T08:10:28;10.40;99.60
421;DHT22;63667;49.046;8.468;2022-11-15T08:13:00;10.30;99.60
421;DHT22;63667;49.046;8.468;2022-11-15T08:15:28;10.30;99.60
421;DHT22;63667;49.046;8.468;2022-11-15T08:18:00;10.40;99.60
421;DHT22;63667;49.046;8.468;2022-11-15T08:20:29;10.70;99.60
421;DHT22;63667;49.046;8.468;2022-11-15T08:22:59;10.70;99.60
421;DHT22;63667;49.046;8.468;2022-11-15T08:25:28;10.60;99.60
421;DHT22;63667;49.046;8.468;2022-11-15T08:27:58;10.90;99.60
421;DHT22;63667;49.046;8.468;2022-11-15T08:30:25;10.90;99.60
421;DHT22;63667;49.046;8.468;2022-11-15T08:32:58;10.80;99.60
421;DHT22;63667;49.046;8.468;2022-11-15T08:35:25;10.90;99.60
421;DHT22;63667;49.046;8.468;2022-11-15T08:37:53;11.00;99.60
421;DHT22;63667;49.046;8.468;2022-11-15T08:40:20;11.20;99.60
421;DHT22;63667;49.046;8.468;2022-11-15T08:42:47;11.20;99.60
421;DHT22;63667;49.046;8.468;2022-11-15T08:45:15;11.30;99.60
421;DHT22;63667;49.046;8.468;2022-11-15T08:47:42;11.30;99.60
421;DHT22;63667;49.046;8.468;2022-11-15T08:50:10;11.60;99.60
421;DHT22;63667;49.046;8.468;2022-11-15T08:52:38;12.00;99.60
421;DHT22;63667;49.046;8.468;2022-11-15T08:55:07;12.00;99.60
421;DHT22;63667;49.046;8.468;2022-11-15T08:57:39;12.10;99.60
421;DHT22;63667;49.046;8.468;2022-11-15T09:00:07;12.30;99.60
421;DHT22;63667;49.046;8.468;2022-11-15T09:02:38;12.30;99.60
421;DHT22;63667;49.046;8.468;2022-11-15T09:05:07;12.20;99.60
421;DHT22;63667;49.046;8.468;2022-11-15T09:07:34;12.30;99.60
421;DHT22;63667;49.046;8.468;2022-11-15T09:10:03;12.30;99.60
421;DHT22;63667;49.046;8.468;2022-11-15T09:12:32;12.10;99.60
421;DHT22;63667;49.046;8.468;2022-11-15T09:15:00;12.00;99.60
421;DHT22;63667;49.046;8.468;2022-11-15T09:17:28;12.20;99.60
421;DHT22;63667;49.046;8.468;2022-11-15T09:19:55;12.30;99.60
421;DHT22;63667;49.046;8.468;2022-11-15T09:22:23;12.20;99.60
421;DHT22;63667;49.046;8.468;2022-11-15T09:24:50;12.30;99.60
421;DHT22;63667;49.046;8.468;2022-11-15T09:27:18;12.30;99.60
421;DHT22;63667;49.046;8.468;2022-11-15T09:29:45;12.80;99.60
421;DHT22;63667;49.046;8.468;2022-11-15T09:32:13;12.60;99.60
421;DHT22;63667;49.046;8.468;2022-11-15T09:34:40;12.50;99.60
421;DHT22;63667;49.046;8.468;2022-11-15T09:37:09;12.70;99.60
421;DHT22;63667;49.046;8.468;2022-11-15T09:39:36;12.90;99.60
421;DHT22;63667;49.046;8.468;2022-11-15T09:42:22;12.80;99.60
421;DHT22;63667;49.046;8.468;2022-11-15T09:50:48;12.50;99.60
421;DHT22;63667;49.046;8.468;2022-11-15T09:53:38;12.40;99.60
421;DHT22;63667;49.046;8.468;2022-11-15T09:56:10;12.50;99.60
421;DHT22;63667;49.046;8.468;2022-11-15T09:59:05;12.70;99.60
421;DHT22;63667;49.046;8.468;2022-11-15T10:04:23;12.40;99.60
421;DHT22;63667;49.046;8.468;2022-11-15T10:09:38;12.60;99.60
421;DHT22;63667;49.046;8.468;2022-11-15T10:12:15;12.60;99.60
421;DHT22;63667;49.046;8.468;2022-11-15T10:14:44;12.50;99.60
421;DHT22;63667;49.046;8.468;2022-11-15T10:18:05;12.50;99.60
421;DHT22;63667;49.046;8.468;2022-11-15T10:20:28;12.50;99.60
421;DHT22;63667;49.046;8.468;2022-11-15T10:23:01;12.60;99.60
421;DHT22;63667;49.046;8.468;2022-11-15T10:25:34;12.50;99.60
421;DHT22;63667;49.046;8.468;2022-11-15T10:28:12;12.70;99.60
421;DHT22;63667;49.046;8.468;2022-11-15T10:30:45;12.80;99.60
421;DHT22;63667;49.046;8.468;2022-11-15T10:41:19;12.70;99.60
421;DHT22;63667;49.046;8.468;2022-11-15T10:46:28;13.20;99.60
421;DHT22;63667;49.046;8.468;2022-11-15T10:49:15;13.20;99.60
421;DHT22;63667;49.046;8.468;2022-11-15T10:52:18;13.10;99.60
421;DHT22;63667;49.046;8.468;2022-11-15T10:57:22;13.10;99.60
421;DHT22;63667;49.046;8.468;2022-11-15T10:59:54;13.00;99.60
421;DHT22;63667;49.046;8.468;2022-11-15T11:05:00;13.10;99.60
421;DHT22;63667;49.046;8.468;2022-11-15T11:07:30;13.10;99.60
421;DHT22;63667;49.046;8.468;2022-11-15T11:10:19;13.20;99.60
421;DHT22;63667;49.046;8.468;2022-11-15T11:12:47;13.10;99.60
421;DHT22;63667;49.046;8.468;2022-11-15T11:15:16;13.20;99.60
421;DHT22;63667;49.046;8.468;2022-11-15T11:20:36;13.30;99.60
421;DHT22;63667;49.046;8.468;2022-11-15T11:23:35;13.60;99.60
421;DHT22;63667;49.046;8.468;2022-11-15T11:26:07;13.60;99.60
421;DHT22;63667;49.046;8.468;2022-11-15T11:42:32;13.50;99.60
421;DHT22;63667;49.046;8.468;2022-11-15T11:45:30;13.60;99.60
421;DHT22;63667;49.046;8.468;2022-11-15T11:48:13;13.50;99.60
421;DHT22;63667;49.046;8.468;2022-11-15T11:50:42;13.50;99.60
421;DHT22;63667;49.046;8.468;2022-11-15T11:53:45;13.80;99.60
421;DHT22;63667;49.046;8.468;2022-11-15T11:56:34;13.90;99.60
421;DHT22;63667;49.046;8.468;2022-11-15T12:01:53;13.80;99.60
421;DHT22;63667;49.046;8.468;2022-11-15T12:04:32;13.80;99.60
421;DHT22;63667;49.046;8.468;2022-11-15T12:07:10;13.80;99.60
421;DHT22;63667;49.046;8.468;2022-11-15T12:09:58;13.80;99.60
421;DHT22;63667;49.046;8.468;2022-11-15T12:13:04;13.80;99.60
421;DHT22;63667;49.046;8.468;2022-11-15T12:16:07;13.90;99.60
421;DHT22;63667;49.046;8.468;2022-11-15T12:18:38;13.80;99.60
421;DHT22;63667;49.046;8.468;2022-11-15T12:21:16;13.90;99.60
421;DHT22;63667;49.046;8.468;2022-11-15T12:23:54;13.80;99.60
421;DHT22;63667;49.046;8.468;2022-11-15T12:26:34;13.80;99.60
421;DHT22;63667;49.046;8.468;2022-11-15T12:29:11;14.00;99.60
421;DHT22;63667;49.046;8.468;2022-11-15T12:31:41;14.00;99.60
421;DHT22;63667;49.046;8.468;2022-11-15T12:34:37;14.10;99.60
421;DHT22;63667;49.046;8.468;2022-11-15T12:40:20;14.40;99.60
421;DHT22;63667;49.046;8.468;2022-11-15T12:43:03;14.70;99.60
421;DHT22;63667;49.046;8.468;2022-11-15T12:45:38;15.20;99.60
421;DHT22;63667;49.046;8.468;2022-11-15T12:58:59;15.90;99.60
421;DHT22;63667;49.046;8.468;2022-11-15T13:01:52;16.10;99.60
421;DHT22;63667;49.046;8.468;2022-11-15T13:04:26;16.10;99.60
421;DHT22;63667;49.046;8.468;2022-11-15T13:07:05;16.20;99.60
421;DHT22;63667;49.046;8.468;2022-11-15T13:12:06;16.40;99.60
421;DHT22;63667;49.046;8.468;2022-11-15T13:20:32;16.40;99.60
421;DHT22;63667;49.046;8.468;2022-11-15T13:28:54;16.20;99.60
421;DHT22;63667;49.046;8.468;2022-11-15T13:31:34;16.20;99.60
421;DHT22;63667;49.046;8.468;2022-11-15T13:34:30;16.20;99.60
421;DHT22;63667;49.046;8.468;2022-11-15T13:37:02;16.10;99.60
421;DHT22;63667;49.046;8.468;2022-11-15T13:39:32;15.90;99.60
421;DHT22;63667;49.046;8.468;2022-11-15T13:42:00;15.80;99.60
421;DHT22;63667;49.046;8.468;2022-11-15T13:44:32;15.70;99.60
421;DHT22;63667;49.046;8.468;2022-11-15T13:47:13;15.70;99.60
421;DHT22;63667;49.046;8.468;2022-11-15T13:49:41;15.60;99.60
421;DHT22;63667;49.046;8.468;2022-11-15T13:52:11;15.60;99.60
421;DHT22;63667;49.046;8.468;2022-11-15T13:54:47;15.70;99.60
421;DHT22;63667;49.046;8.468;2022-11-15T13:57:23;15.50;99.60
421;DHT22;63667;49.046;8.468;2022-11-15T14:00:03;15.40;99.60
421;DHT22;63667;49.046;8.468;2022-11-15T14:02:34;15.50;99.60
421;DHT22;63667;49.046;8.468;2022-11-15T14:05:20;15.50;99.60
421;DHT22;63667;49.046;8.468;2022-11-15T14:07:54;15.60;99.60
421;DHT22;63667;49.046;8.468;2022-11-15T14:10:36;15.70;99.60
421;DHT22;63667;49.046;8.468;2022-11-15T14:13:04;15.70;99.60
421;DHT22;63667;49.046;8.468;2022-11-15T14:15:32;15.50;99.60
421;DHT22;63667;49.046;8.468;2022-11-15T14:17:59;15.40;99.60
421;DHT22;63667;49.046;8.468;2022-11-15T14:20:32;15.50;99.60
421;DHT22;63667;49.046;8.468;2022-11-15T14:25:56;15.40;99.60
421;DHT22;63667;49.046;8.468;2022-11-15T14:30:53;15.30;99.60
421;DHT22;63667;49.046;8.468;2022-11-15T14:33:37;15.30;99.60
421;DHT22;63667;49.046;8.468;2022-11-15T14:36:21;15.30;99.60
421;DHT22;63667;49.046;8.468;2022-11-15T14:38:49;15.20;99.60
421;DHT22;63667;49.046;8.468;2022-11-15T14:41:22;15.10;99.60
421;DHT22;63667;49.046;8.468;2022-11-15T14:43:50;15.10;99.60
421;DHT22;63667;49.046;8.468;2022-11-15T14:46:17;15.10;99.60
421;DHT22;63667;49.046;8.468;2022-11-15T14:48:44;15.20;99.60
421;DHT22;63667;49.046;8.468;2022-11-15T14:51:13;15.20;99.60
421;DHT22;63667;49.046;8.468;2022-11-15T14:53:42;15.20;99.60
421;DHT22;63667;49.046;8.468;2022-11-15T14:56:09;15.10;99.60
421;DHT22;63667;49.046;8.468;2022-11-15T14:58:37;15.00;99.60
421;DHT22;63667;49.046;8.468;2022-11-15T15:03:40;14.80;99.60
421;DHT22;63667;49.046;8.468;2022-11-15T15:06:08;14.90;99.60
421;DHT22;63667;49.046;8.468;2022-11-15T15:08:36;14.90;99.60
421;DHT22;63667;49.046;8.468;2022-11-15T15:11:13;15.00;99.60
421;DHT22;63667;49.046;8.468;2022-11-15T15:13:41;14.90;99.60
421;DHT22;63667;49.046;8.468;2022-11-15T15:16:08;14.80;99.60
421;DHT22;63667;49.046;8.468;2022-11-15T15:18:36;14.80;99.60
421;DHT22;63667;49.046;8.468;2022-11-15T15:21:24;14.70;99.60
421;DHT22;63667;49.046;8.468;2022-11-15T15:23:53;14.80;99.60
421;DHT22;63667;49.046;8.468;2022-11-15T15:26:21;15.00;99.60
421;DHT22;63667;49.046;8.468;2022-11-15T15:28:49;14.90;99.60
421;DHT22;63667;49.046;8.468;2022-11-15T15:31:18;14.90;99.60
421;DHT22;63667;49.046;8.468;2022-11-15T15:33:45;14.70;99.60
421;DHT22;63667;49.046;8.468;2022-11-15T15:36:17;14.40;99.60
421;DHT22;63667;49.046;8.468;2022-11-15T15:38:44;14.30;99.60
421;DHT22;63667;49.046;8.468;2022-11-15T15:41:14;14.20;99.60
421;DHT22;63667;49.046;8.468;2022-11-15T15:43:42;14.10;99.60
421;DHT22;63667;49.046;8.468;2022-11-15T15:46:16;14.40;99.60
421;DHT22;63667;49.046;8.468;2022-11-15T15:48:43;14.30;99.60
421;DHT22;63667;49.046;8.468;2022-11-15T15:51:11;14.20;99.60
421;DHT22;63667;49.046;8.468;2022-11-15T15:53:39;14.10;99.60
421;DHT22;63667;49.046;8.468;2022-11-15T15:56:07;14.00;99.60
421;DHT22;63667;49.046;8.468;2022-11-15T15:58:34;14.00;99.60
421;DHT22;63667;49.046;8.468;2022-11-15T16:01:02;13.90;99.60
421;DHT22;63667;49.046;8.468;2022-11-15T16:03:29;13.90;99.60
421;DHT22;63667;49.046;8.468;2022-11-15T16:05:57;14.10;99.60
421;DHT22;63667;49.046;8.468;2022-11-15T16:08:25;13.90;99.60
421;DHT22;63667;49.046;8.468;2022-11-15T16:10:57;13.70;99.60
421;DHT22;63667;49.046;8.468;2022-11-15T16:13:25;13.70;99.60
421;DHT22;63667;49.046;8.468;2022-11-15T16:15:53;14.10;99.60
421;DHT22;63667;49.046;8.468;2022-11-15T16:18:21;14.00;99.60
421;DHT22;63667;49.046;8.468;2022-11-15T16:20:49;14.00;99.60
421;DHT22;63667;49.046;8.468;2022-11-15T16:23:19;13.80;99.60
421;DHT22;63667;49.046;8.468;2022-11-15T16:25:55;13.60;99.60
421;DHT22;63667;49.046;8.468;2022-11-15T16:28:30;13.70;99.60
421;DHT22;63667;49.046;8.468;2022-11-15T16:31:09;13.60;99.60
421;DHT22;63667;49.046;8.468;2022-11-15T16:33:36;13.60;99.60
421;DHT22;63667;49.046;8.468;2022-11-15T16:36:05;13.60;99.60
421;DHT22;63667;49.046;8.468;2022-11-15T16:38:33;13.60;99.60
421;DHT22;63667;49.046;8.468;2022-11-15T16:41:00;13.40;99.60
421;DHT22;63667;49.046;8.468;2022-11-15T16:43:28;13.40;99.60
421;DHT22;63667;49.046;8.468;2022-11-15T16:45:55;13.50;99.60
421;DHT22;63667;49.046;8.468;2022-11-15T16:48:25;13.60;99.60
421;DHT22;63667;49.046;8.468;2022-11-15T16:50:57;13.80;99.60
421;DHT22;63667;49.046;8.468;2022-11-15T16:53:25;13.80;99.60
421;DHT22;63667;49.046;8.468;2022-11-15T16:55:53;13.90;99.60
421;DHT22;63667;49.046;8.468;2022-11-15T16:58:20;13.70;99.60
421;DHT22;63667;49.046;8.468;2022-11-15T17:00:51;13.70;99.60
421;DHT22;63667;49.046;8.468;2022-11-15T17:03:20;13.70;99.60
421;DHT22;63667;49.046;8.468;2022-11-15T17:05:47;13.70;99.60
421;DHT22;63667;49.046;8.468;2022-11-15T17:08:14;13.80;99.60
421;DHT22;63667;49.046;8.468;2022-11-15T17:10:41;13.90;99.60
421;DHT22;63667;49.046;8.468;2022-11-15T17:13:13;13.80;99.60
421;DHT22;63667;49.046;8.468;2022-11-15T17:15:40;13.70;99.60
421;DHT22;63667;49.046;8.468;2022-11-15T17:18:11;13.80;99.60
421;DHT22;63667;49.046;8.468;2022-11-15T17:20:41;13.80;99.60
421;DHT22;63667;49.046;8.468;2022-11-15T17:23:12;13.80;99.60
421;DHT22;63667;49.046;8.468;2022-11-15T17:25:40;13.90;99.60
421;DHT22;63667;49.046;8.468;2022-11-15T17:28:07;13.80;99.60
421;DHT22;63667;49.046;8.468;2022-11-15T17:30:41;13.70;99.60
421;DHT22;63667;49.046;8.468;2022-11-15T17:33:09;13.80;99.60
421;DHT22;63667;49.046;8.468;2022-11-15T17:35:37;13.80;99.60
421;DHT22;63667;49.046;8.468;2022-11-15T17:38:04;13.90;99.60
421;DHT22;63667;49.046;8.468;2022-11-15T17:40:32;13.80;99.60
421;DHT22;63667;49.046;8.468;2022-11-15T17:43:00;13.90;99.60
421;DHT22;63667;49.046;8.468;2022-11-15T17:45:28;14.00;99.60
421;DHT22;63667;49.046;8.468;2022-11-15T17:47:56;14.00;99.60
421;DHT22;63667;49.046;8.468;2022-11-15T17:50:25;14.00;99.60
421;DHT22;63667;49.046;8.468;2022-11-15T17:52:52;14.00;99.60
421;DHT22;63667;49.046;8.468;2022-11-15T17:55:20;14.10;99.60
421;DHT22;63667;49.046;8.468;2022-11-15T17:57:48;14.10;99.60
421;DHT22;63667;49.046;8.468;2022-11-15T18:00:17;14.10;99.60
421;DHT22;63667;49.046;8.468;2022-11-15T18:02:47;14.20;99.60
421;DHT22;63667;49.046;8.468;2022-11-15T18:05:15;14.30;99.60
421;DHT22;63667;49.046;8.468;2022-11-15T18:07:42;14.30;99.60
421;DHT22;63667;49.046;8.468;2022-11-15T18:10:10;14.20;99.60
421;DHT22;63667;49.046;8.468;2022-11-15T18:12:37;14.30;99.60
421;DHT22;63667;49.046;8.468;2022-11-15T18:15:06;14.20;99.60
421;DHT22;63667;49.046;8.468;2022-11-15T18:17:35;14.30;99.60
421;DHT22;63667;49.046;8.468;2022-11-15T18:20:04;14.20;99.60
421;DHT22;63667;49.046;8.468;2022-11-15T18:22:33;14.30;99.60
421;DHT22;63667;49.046;8.468;2022-11-15T18:25:01;14.20;99.60
421;DHT22;63667;49.046;8.468;2022-11-15T18:27:32;14.20;99.60
421;DHT22;63667;49.046;8.468;2022-11-15T18:29:59;14.10;99.60